sensor_id;sensor_type;location;lat;lon;timestamp;P1;durP1;ratioP1;P2;durP2;ratioP2
20445;SDS011;10382;49.140;9.234;2023-04-25T00:01:00;9.73;;;5.10;;
20445;SDS011;10382;49.140;9.234;2023-04-25T00:03:28;20.03;;;7.77;;
20445;SDS011;10382;49.140;9.234;2023-04-25T00:05:55;27.13;;;8.03;;
20445;SDS011;10382;49.140;9.234;2023-04-25T00:08:22;13.07;;;6.00;;
20445;SDS011;10382;49.140;9.234;2023-04-25T00:10:52;24.50;;;9.40;;
20445;SDS011;10382;49.140;9.234;2023-04-25T00:13:19;18.70;;;7.00;;
20445;SDS011;10382;49.140;9.234;2023-04-25T00:15:46;25.80;;;9.43;;
20445;SDS011;10382;49.140;9.234;2023-04-25T00:18:13;18.30;;;6.33;;
20445;SDS011;10382;49.140;9.234;2023-04-25T00:20:40;19.83;;;7.40;;
20445;SDS011;10382;49.140;9.234;2023-04-25T00:23:11;17.40;;;7.57;;
20445;SDS011;10382;49.140;9.234;2023-04-25T00:25:42;20.03;;;7.90;;
20445;SDS011;10382;49.140;9.234;2023-04-25T00:28:10;12.33;;;5.73;;
20445;SDS011;10382;49.140;9.234;2023-04-25T00:30:38;16.53;;;6.53;;
20445;SDS011;10382;49.140;9.234;2023-04-25T00:33:05;18.13;;;7.47;;
20445;SDS011;10382;49.140;9.234;2023-04-25T00:35:32;14.90;;;5.97;;
20445;SDS011;10382;49.140;9.234;2023-04-25T00:37:59;12.63;;;5.20;;
20445;SDS011;10382;49.140;9.234;2023-04-25T00:40:26;13.80;;;5.90;;
20445;SDS011;10382;49.140;9.234;2023-04-25T00:42:53;9.90;;;6.10;;
20445;SDS011;10382;49.140;9.234;2023-04-25T00:45:21;10.17;;;5.80;;
20445;SDS011;10382;49.140;9.234;2023-04-25T00:47:53;8.00;;;4.97;;
20445;SDS011;10382;49.140;9.234;2023-04-25T00:50:21;9.20;;;4.90;;
20445;SDS011;10382;49.140;9.234;2023-04-25T00:52:48;10.33;;;5.83;;
20445;SDS011;10382;49.140;9.234;2023-04-25T00:55:15;10.40;;;5.83;;
20445;SDS011;10382;49.140;9.234;2023-04-25T00:57:42;6.47;;;4.90;;
20445;SDS011;10382;49.140;9.234;2023-04-25T01:00:09;6.57;;;4.67;;
20445;SDS011;10382;49.140;9.234;2023-04-25T01:02:40;10.07;;;5.93;;
20445;SDS011;10382;49.140;9.234;2023-04-25T01:05:08;10.97;;;5.37;;
20445;SDS011;10382;49.140;9.234;2023-04-25T01:07:35;7.47;;;5.00;;
20445;SDS011;10382;49.140;9.234;2023-04-25T01:10:02;11.13;;;6.00;;
20445;SDS011;10382;49.140;9.234;2023-04-25T01:12:31;9.30;;;5.90;;
20445;SDS011;10382;49.140;9.234;2023-04-25T01:14:58;10.37;;;5.27;;
20445;SDS011;10382;49.140;9.234;2023-04-25T01:17:25;8.63;;;4.73;;
20445;SDS011;10382;49.140;9.234;2023-04-25T01:19:53;11.17;;;6.03;;
20445;SDS011;10382;49.140;9.234;2023-04-25T01:22:22;12.27;;;7.63;;
20445;SDS011;10382;49.140;9.234;2023-04-25T01:24:49;14.80;;;7.27;;
20445;SDS011;10382;49.140;9.234;2023-04-25T01:27:15;14.03;;;5.50;;
20445;SDS011;10382;49.140;9.234;2023-04-25T01:29:43;16.03;;;7.80;;
20445;SDS011;10382;49.140;9.234;2023-04-25T01:32:10;10.43;;;5.70;;
20445;SDS011;10382;49.140;9.234;2023-04-25T01:34:38;16.53;;;8.40;;
20445;SDS011;10382;49.140;9.234;2023-04-25T01:37:05;10.17;;;4.70;;
20445;SDS011;10382;49.140;9.234;2023-04-25T01:39:33;10.70;;;6.30;;
20445;SDS011;10382;49.140;9.234;2023-04-25T01:42:00;11.20;;;6.00;;
20445;SDS011;10382;49.140;9.234;2023-04-25T01:44:27;15.93;;;7.70;;
20445;SDS011;10382;49.140;9.234;2023-04-25T01:46:53;9.47;;;5.00;;
20445;SDS011;10382;49.140;9.234;2023-04-25T01:49:20;10.80;;;5.73;;
20445;SDS011;10382;49.140;9.234;2023-04-25T01:51:48;13.77;;;7.20;;
20445;SDS011;10382;49.140;9.234;2023-04-25T01:54:15;13.80;;;8.00;;
20445;SDS011;10382;49.140;9.234;2023-04-25T01:56:49;21.03;;;7.90;;
20445;SDS011;10382;49.140;9.234;2023-04-25T01:59:16;12.30;;;4.67;;
20445;SDS011;10382;49.140;9.234;2023-04-25T02:01:46;12.47;;;6.17;;
20445;SDS011;10382;49.140;9.234;2023-04-25T02:04:13;10.87;;;5.50;;
20445;SDS011;10382;49.140;9.234;2023-04-25T02:06:40;8.93;;;5.13;;
20445;SDS011;10382;49.140;9.234;2023-04-25T02:09:07;8.03;;;5.00;;
20445;SDS011;10382;49.140;9.234;2023-04-25T02:11:34;9.97;;;4.77;;
20445;SDS011;10382;49.140;9.234;2023-04-25T02:14:02;7.80;;;5.10;;
20445;SDS011;10382;49.140;9.234;2023-04-25T02:16:29;12.57;;;7.20;;
20445;SDS011;10382;49.140;9.234;2023-04-25T02:18:56;9.17;;;5.33;;
20445;SDS011;10382;49.140;9.234;2023-04-25T02:21:24;5.77;;;4.17;;
20445;SDS011;10382;49.140;9.234;2023-04-25T02:23:51;8.30;;;5.00;;
20445;SDS011;10382;49.140;9.234;2023-04-25T02:26:18;7.27;;;5.17;;
20445;SDS011;10382;49.140;9.234;2023-04-25T02:28:46;8.30;;;5.30;;
20445;SDS011;10382;49.140;9.234;2023-04-25T02:31:14;8.60;;;5.23;;
20445;SDS011;10382;49.140;9.234;2023-04-25T02:33:41;10.10;;;5.13;;
20445;SDS011;10382;49.140;9.234;2023-04-25T02:36:07;12.17;;;5.90;;
20445;SDS011;10382;49.140;9.234;2023-04-25T02:38:35;13.87;;;5.60;;
20445;SDS011;10382;49.140;9.234;2023-04-25T02:41:01;10.20;;;6.00;;
20445;SDS011;10382;49.140;9.234;2023-04-25T02:43:28;7.20;;;4.47;;
20445;SDS011;10382;49.140;9.234;2023-04-25T02:45:55;11.87;;;6.23;;
20445;SDS011;10382;49.140;9.234;2023-04-25T02:48:23;16.03;;;8.13;;
20445;SDS011;10382;49.140;9.234;2023-04-25T02:50:50;11.80;;;5.77;;
20445;SDS011;10382;49.140;9.234;2023-04-25T02:53:17;7.13;;;5.13;;
20445;SDS011;10382;49.140;9.234;2023-04-25T02:55:44;13.63;;;7.37;;
20445;SDS011;10382;49.140;9.234;2023-04-25T02:58:11;5.63;;;4.60;;
20445;SDS011;10382;49.140;9.234;2023-04-25T03:00:37;14.53;;;5.77;;
20445;SDS011;10382;49.140;9.234;2023-04-25T03:03:04;15.10;;;7.37;;
20445;SDS011;10382;49.140;9.234;2023-04-25T03:05:32;11.33;;;5.30;;
20445;SDS011;10382;49.140;9.234;2023-04-25T03:07:59;9.13;;;5.77;;
20445;SDS011;10382;49.140;9.234;2023-04-25T03:10:26;9.63;;;6.00;;
20445;SDS011;10382;49.140;9.234;2023-04-25T03:12:53;9.90;;;5.43;;
20445;SDS011;10382;49.140;9.234;2023-04-25T03:15:20;10.20;;;5.50;;
20445;SDS011;10382;49.140;9.234;2023-04-25T03:17:47;10.90;;;5.53;;
20445;SDS011;10382;49.140;9.234;2023-04-25T03:20:14;8.37;;;4.50;;
20445;SDS011;10382;49.140;9.234;2023-04-25T03:22:42;12.20;;;4.90;;
20445;SDS011;10382;49.140;9.234;2023-04-25T03:25:10;9.97;;;5.30;;
20445;SDS011;10382;49.140;9.234;2023-04-25T03:27:37;9.27;;;5.10;;
20445;SDS011;10382;49.140;9.234;2023-04-25T03:30:04;13.57;;;6.03;;
20445;SDS011;10382;49.140;9.234;2023-04-25T03:32:32;6.53;;;4.83;;
20445;SDS011;10382;49.140;9.234;2023-04-25T03:34:59;9.80;;;5.00;;
20445;SDS011;10382;49.140;9.234;2023-04-25T03:37:26;5.03;;;4.23;;
20445;SDS011;10382;49.140;9.234;2023-04-25T03:39:55;10.20;;;5.63;;
20445;SDS011;10382;49.140;9.234;2023-04-25T03:42:22;8.80;;;4.27;;
20445;SDS011;10382;49.140;9.234;2023-04-25T03:44:50;7.13;;;4.10;;
20445;SDS011;10382;49.140;9.234;2023-04-25T03:47:18;6.10;;;4.27;;
20445;SDS011;10382;49.140;9.234;2023-04-25T03:49:46;6.90;;;4.50;;
20445;SDS011;10382;49.140;9.234;2023-04-25T03:52:14;8.10;;;5.00;;
20445;SDS011;10382;49.140;9.234;2023-04-25T03:54:42;7.10;;;5.10;;
20445;SDS011;10382;49.140;9.234;2023-04-25T03:57:11;8.50;;;5.27;;
20445;SDS011;10382;49.140;9.234;2023-04-25T03:59:39;11.07;;;5.43;;
20445;SDS011;10382;49.140;9.234;2023-04-25T04:02:06;22.37;;;9.20;;
20445;SDS011;10382;49.140;9.234;2023-04-25T04:04:33;10.13;;;6.50;;
20445;SDS011;10382;49.140;9.234;2023-04-25T04:07:00;9.73;;;6.00;;
20445;SDS011;10382;49.140;9.234;2023-04-25T04:09:27;8.60;;;5.57;;
20445;SDS011;10382;49.140;9.234;2023-04-25T04:11:54;8.57;;;5.83;;
20445;SDS011;10382;49.140;9.234;2023-04-25T04:14:22;11.27;;;6.23;;
20445;SDS011;10382;49.140;9.234;2023-04-25T04:16:50;14.33;;;7.60;;
20445;SDS011;10382;49.140;9.234;2023-04-25T04:19:17;11.80;;;6.97;;
20445;SDS011;10382;49.140;9.234;2023-04-25T04:21:44;9.73;;;6.60;;
20445;SDS011;10382;49.140;9.234;2023-04-25T04:24:11;15.83;;;7.77;;
20445;SDS011;10382;49.140;9.234;2023-04-25T04:26:38;9.20;;;6.20;;
20445;SDS011;10382;49.140;9.234;2023-04-25T04:29:07;10.80;;;6.30;;
20445;SDS011;10382;49.140;9.234;2023-04-25T04:31:37;8.80;;;6.17;;
20445;SDS011;10382;49.140;9.234;2023-04-25T04:34:04;19.63;;;9.80;;
20445;SDS011;10382;49.140;9.234;2023-04-25T04:36:32;9.53;;;5.83;;
20445;SDS011;10382;49.140;9.234;2023-04-25T04:38:59;11.37;;;6.20;;
20445;SDS011;10382;49.140;9.234;2023-04-25T04:41:28;16.53;;;8.23;;
20445;SDS011;10382;49.140;9.234;2023-04-25T04:43:55;14.93;;;7.60;;
20445;SDS011;10382;49.140;9.234;2023-04-25T04:46:22;12.97;;;7.17;;
20445;SDS011;10382;49.140;9.234;2023-04-25T04:48:51;15.50;;;7.57;;
20445;SDS011;10382;49.140;9.234;2023-04-25T04:51:18;19.60;;;11.10;;
20445;SDS011;10382;49.140;9.234;2023-04-25T04:53:45;17.20;;;10.50;;
20445;SDS011;10382;49.140;9.234;2023-04-25T04:56:12;14.73;;;8.83;;
20445;SDS011;10382;49.140;9.234;2023-04-25T04:58:39;17.23;;;9.07;;
20445;SDS011;10382;49.140;9.234;2023-04-25T05:01:06;13.37;;;7.93;;
20445;SDS011;10382;49.140;9.234;2023-04-25T05:03:33;8.80;;;6.40;;
20445;SDS011;10382;49.140;9.234;2023-04-25T05:06:01;13.80;;;6.50;;
20445;SDS011;10382;49.140;9.234;2023-04-25T05:08:29;18.27;;;10.53;;
20445;SDS011;10382;49.140;9.234;2023-04-25T05:10:56;17.50;;;9.00;;
20445;SDS011;10382;49.140;9.234;2023-04-25T05:13:23;10.17;;;7.33;;
20445;SDS011;10382;49.140;9.234;2023-04-25T05:15:50;10.90;;;7.30;;
20445;SDS011;10382;49.140;9.234;2023-04-25T05:18:17;18.70;;;11.00;;
20445;SDS011;10382;49.140;9.234;2023-04-25T05:20:44;14.57;;;8.73;;
20445;SDS011;10382;49.140;9.234;2023-04-25T05:23:13;15.23;;;9.27;;
20445;SDS011;10382;49.140;9.234;2023-04-25T05:25:40;15.30;;;9.37;;
20445;SDS011;10382;49.140;9.234;2023-04-25T05:28:08;10.73;;;7.13;;
20445;SDS011;10382;49.140;9.234;2023-04-25T05:30:35;15.17;;;9.27;;
20445;SDS011;10382;49.140;9.234;2023-04-25T05:33:02;17.83;;;10.00;;
20445;SDS011;10382;49.140;9.234;2023-04-25T05:35:29;20.90;;;10.57;;
20445;SDS011;10382;49.140;9.234;2023-04-25T05:37:56;12.53;;;8.23;;
20445;SDS011;10382;49.140;9.234;2023-04-25T05:40:25;15.23;;;9.70;;
20445;SDS011;10382;49.140;9.234;2023-04-25T05:42:52;16.17;;;9.80;;
20445;SDS011;10382;49.140;9.234;2023-04-25T05:45:19;12.27;;;8.10;;
20445;SDS011;10382;49.140;9.234;2023-04-25T05:47:45;15.23;;;9.63;;
20445;SDS011;10382;49.140;9.234;2023-04-25T05:50:12;11.20;;;7.80;;
20445;SDS011;10382;49.140;9.234;2023-04-25T05:52:39;12.80;;;8.20;;
20445;SDS011;10382;49.140;9.234;2023-04-25T05:55:07;13.93;;;6.93;;
20445;SDS011;10382;49.140;9.234;2023-04-25T05:57:36;12.57;;;8.30;;
20445;SDS011;10382;49.140;9.234;2023-04-25T06:00:07;10.20;;;7.13;;
20445;SDS011;10382;49.140;9.234;2023-04-25T06:02:35;10.30;;;8.07;;
20445;SDS011;10382;49.140;9.234;2023-04-25T06:05:02;10.50;;;7.77;;
20445;SDS011;10382;49.140;9.234;2023-04-25T06:07:31;12.53;;;9.00;;
20445;SDS011;10382;49.140;9.234;2023-04-25T06:09:59;15.43;;;9.23;;
20445;SDS011;10382;49.140;9.234;2023-04-25T06:12:26;11.20;;;7.97;;
20445;SDS011;10382;49.140;9.234;2023-04-25T06:14:55;11.63;;;7.70;;
20445;SDS011;10382;49.140;9.234;2023-04-25T06:17:21;15.73;;;9.93;;
20445;SDS011;10382;49.140;9.234;2023-04-25T06:19:48;14.47;;;9.27;;
20445;SDS011;10382;49.140;9.234;2023-04-25T06:22:15;14.20;;;8.97;;
20445;SDS011;10382;49.140;9.234;2023-04-25T06:24:42;12.53;;;7.80;;
20445;SDS011;10382;49.140;9.234;2023-04-25T06:27:09;14.13;;;8.63;;
20445;SDS011;10382;49.140;9.234;2023-04-25T06:29:35;12.37;;;7.83;;
20445;SDS011;10382;49.140;9.234;2023-04-25T06:32:04;12.73;;;8.97;;
20445;SDS011;10382;49.140;9.234;2023-04-25T06:34:31;16.17;;;9.50;;
20445;SDS011;10382;49.140;9.234;2023-04-25T06:36:58;13.80;;;8.90;;
20445;SDS011;10382;49.140;9.234;2023-04-25T06:39:25;13.03;;;8.50;;
20445;SDS011;10382;49.140;9.234;2023-04-25T06:41:52;13.47;;;7.90;;
20445;SDS011;10382;49.140;9.234;2023-04-25T06:44:18;22.37;;;9.13;;
20445;SDS011;10382;49.140;9.234;2023-04-25T06:46:46;23.30;;;10.90;;
20445;SDS011;10382;49.140;9.234;2023-04-25T06:49:14;23.57;;;11.70;;
20445;SDS011;10382;49.140;9.234;2023-04-25T06:51:41;26.13;;;11.50;;
20445;SDS011;10382;49.140;9.234;2023-04-25T06:54:08;23.10;;;10.40;;
20445;SDS011;10382;49.140;9.234;2023-04-25T06:56:34;26.90;;;11.57;;
20445;SDS011;10382;49.140;9.234;2023-04-25T06:59:01;19.23;;;10.07;;
20445;SDS011;10382;49.140;9.234;2023-04-25T07:01:28;23.87;;;10.37;;
20445;SDS011;10382;49.140;9.234;2023-04-25T07:03:55;26.43;;;11.40;;
20445;SDS011;10382;49.140;9.234;2023-04-25T07:06:23;17.43;;;9.47;;
20445;SDS011;10382;49.140;9.234;2023-04-25T07:08:51;32.03;;;12.80;;
20445;SDS011;10382;49.140;9.234;2023-04-25T07:11:18;19.60;;;9.83;;
20445;SDS011;10382;49.140;9.234;2023-04-25T07:13:45;25.33;;;12.13;;
20445;SDS011;10382;49.140;9.234;2023-04-25T07:16:12;18.03;;;9.23;;
20445;SDS011;10382;49.140;9.234;2023-04-25T07:18:39;17.87;;;8.60;;
20445;SDS011;10382;49.140;9.234;2023-04-25T07:21:06;24.73;;;9.73;;
20445;SDS011;10382;49.140;9.234;2023-04-25T07:23:34;23.47;;;11.07;;
20445;SDS011;10382;49.140;9.234;2023-04-25T07:26:02;16.97;;;9.30;;
20445;SDS011;10382;49.140;9.234;2023-04-25T07:28:29;21.00;;;9.90;;
20445;SDS011;10382;49.140;9.234;2023-04-25T07:30:56;23.87;;;10.43;;
20445;SDS011;10382;49.140;9.234;2023-04-25T07:33:23;23.33;;;10.27;;
20445;SDS011;10382;49.140;9.234;2023-04-25T07:35:50;26.73;;;11.70;;
20445;SDS011;10382;49.140;9.234;2023-04-25T07:38:17;19.33;;;10.17;;
20445;SDS011;10382;49.140;9.234;2023-04-25T07:40:45;26.23;;;12.70;;
20445;SDS011;10382;49.140;9.234;2023-04-25T07:43:13;22.87;;;10.60;;
20445;SDS011;10382;49.140;9.234;2023-04-25T07:45:41;24.13;;;12.77;;
20445;SDS011;10382;49.140;9.234;2023-04-25T07:48:08;23.60;;;10.93;;
20445;SDS011;10382;49.140;9.234;2023-04-25T07:50:35;19.50;;;9.90;;
20445;SDS011;10382;49.140;9.234;2023-04-25T07:53:02;21.87;;;10.73;;
20445;SDS011;10382;49.140;9.234;2023-04-25T07:55:29;21.67;;;10.43;;
20445;SDS011;10382;49.140;9.234;2023-04-25T07:57:57;19.53;;;9.57;;
20445;SDS011;10382;49.140;9.234;2023-04-25T08:00:24;21.23;;;10.07;;
20445;SDS011;10382;49.140;9.234;2023-04-25T08:02:51;32.57;;;13.10;;
20445;SDS011;10382;49.140;9.234;2023-04-25T08:05:18;21.80;;;9.97;;
20445;SDS011;10382;49.140;9.234;2023-04-25T08:07:44;21.67;;;9.63;;
20445;SDS011;10382;49.140;9.234;2023-04-25T08:10:11;18.83;;;9.73;;
20445;SDS011;10382;49.140;9.234;2023-04-25T08:12:38;22.33;;;9.93;;
20445;SDS011;10382;49.140;9.234;2023-04-25T08:15:07;18.20;;;8.33;;
20445;SDS011;10382;49.140;9.234;2023-04-25T08:17:34;19.23;;;9.73;;
20445;SDS011;10382;49.140;9.234;2023-04-25T08:20:02;19.70;;;10.40;;
20445;SDS011;10382;49.140;9.234;2023-04-25T08:22:30;18.53;;;9.73;;
20445;SDS011;10382;49.140;9.234;2023-04-25T08:24:57;19.27;;;9.87;;
20445;SDS011;10382;49.140;9.234;2023-04-25T08:27:24;19.30;;;10.20;;
20445;SDS011;10382;49.140;9.234;2023-04-25T08:29:51;22.90;;;11.10;;
20445;SDS011;10382;49.140;9.234;2023-04-25T08:32:19;19.97;;;10.07;;
20445;SDS011;10382;49.140;9.234;2023-04-25T08:34:47;23.97;;;10.60;;
20445;SDS011;10382;49.140;9.234;2023-04-25T08:37:14;16.93;;;8.57;;
20445;SDS011;10382;49.140;9.234;2023-04-25T08:39:41;21.93;;;10.70;;
20445;SDS011;10382;49.140;9.234;2023-04-25T08:42:08;23.57;;;9.93;;
20445;SDS011;10382;49.140;9.234;2023-04-25T08:44:35;26.20;;;11.20;;
20445;SDS011;10382;49.140;9.234;2023-04-25T08:47:03;18.00;;;10.00;;
20445;SDS011;10382;49.140;9.234;2023-04-25T08:49:33;27.30;;;10.30;;
20445;SDS011;10382;49.140;9.234;2023-04-25T08:52:00;14.67;;;8.50;;
20445;SDS011;10382;49.140;9.234;2023-04-25T08:54:29;22.03;;;9.97;;
20445;SDS011;10382;49.140;9.234;2023-04-25T08:56:57;25.50;;;10.87;;
20445;SDS011;10382;49.140;9.234;2023-04-25T08:59:29;23.07;;;10.57;;
20445;SDS011;10382;49.140;9.234;2023-04-25T09:01:56;18.03;;;8.23;;
20445;SDS011;10382;49.140;9.234;2023-04-25T09:04:23;34.80;;;10.93;;
20445;SDS011;10382;49.140;9.234;2023-04-25T09:06:52;21.63;;;8.03;;
20445;SDS011;10382;49.140;9.234;2023-04-25T09:09:19;22.90;;;9.90;;
20445;SDS011;10382;49.140;9.234;2023-04-25T09:11:46;22.00;;;10.30;;
20445;SDS011;10382;49.140;9.234;2023-04-25T09:14:13;22.70;;;9.80;;
20445;SDS011;10382;49.140;9.234;2023-04-25T09:17:00;29.50;;;10.33;;
20445;SDS011;10382;49.140;9.234;2023-04-25T09:19:29;21.93;;;10.40;;
20445;SDS011;10382;49.140;9.234;2023-04-25T09:21:58;20.63;;;7.97;;
20445;SDS011;10382;49.140;9.234;2023-04-25T09:24:31;18.90;;;7.60;;
20445;SDS011;10382;49.140;9.234;2023-04-25T09:26:59;18.33;;;6.90;;
20445;SDS011;10382;49.140;9.234;2023-04-25T09:29:29;18.57;;;6.77;;
20445;SDS011;10382;49.140;9.234;2023-04-25T09:32:16;17.20;;;7.63;;
20445;SDS011;10382;49.140;9.234;2023-04-25T09:34:45;19.33;;;8.10;;
20445;SDS011;10382;49.140;9.234;2023-04-25T09:37:21;17.10;;;6.97;;
20445;SDS011;10382;49.140;9.234;2023-04-25T09:39:49;20.13;;;7.73;;
20445;SDS011;10382;49.140;9.234;2023-04-25T09:42:17;15.53;;;7.70;;
20445;SDS011;10382;49.140;9.234;2023-04-25T09:44:44;19.87;;;8.80;;
20445;SDS011;10382;49.140;9.234;2023-04-25T09:47:13;19.83;;;7.80;;
20445;SDS011;10382;49.140;9.234;2023-04-25T09:49:41;27.33;;;9.53;;
20445;SDS011;10382;49.140;9.234;2023-04-25T09:52:09;26.07;;;9.13;;
20445;SDS011;10382;49.140;9.234;2023-04-25T09:54:41;24.73;;;9.00;;
20445;SDS011;10382;49.140;9.234;2023-04-25T09:57:10;20.87;;;7.70;;
20445;SDS011;10382;49.140;9.234;2023-04-25T09:59:39;27.73;;;9.43;;
20445;SDS011;10382;49.140;9.234;2023-04-25T10:02:12;18.33;;;7.40;;
20445;SDS011;10382;49.140;9.234;2023-04-25T10:04:40;24.03;;;8.20;;
20445;SDS011;10382;49.140;9.234;2023-04-25T10:07:08;22.37;;;8.23;;
20445;SDS011;10382;49.140;9.234;2023-04-25T10:09:36;23.43;;;6.70;;
20445;SDS011;10382;49.140;9.234;2023-04-25T10:12:07;26.00;;;8.20;;
20445;SDS011;10382;49.140;9.234;2023-04-25T10:14:34;19.77;;;7.03;;
20445;SDS011;10382;49.140;9.234;2023-04-25T10:17:01;25.27;;;8.97;;
20445;SDS011;10382;49.140;9.234;2023-04-25T10:19:28;27.30;;;8.67;;
20445;SDS011;10382;49.140;9.234;2023-04-25T10:21:58;21.53;;;8.50;;
20445;SDS011;10382;49.140;9.234;2023-04-25T10:24:30;23.10;;;8.53;;
20445;SDS011;10382;49.140;9.234;2023-04-25T10:26:57;24.93;;;8.57;;
20445;SDS011;10382;49.140;9.234;2023-04-25T10:29:26;21.70;;;10.00;;
20445;SDS011;10382;49.140;9.234;2023-04-25T10:31:53;27.73;;;9.90;;
20445;SDS011;10382;49.140;9.234;2023-04-25T10:34:23;20.67;;;8.60;;
20445;SDS011;10382;49.140;9.234;2023-04-25T10:36:58;23.33;;;9.87;;
20445;SDS011;10382;49.140;9.234;2023-04-25T10:39:28;30.90;;;9.80;;
20445;SDS011;10382;49.140;9.234;2023-04-25T10:41:55;21.57;;;9.30;;
20445;SDS011;10382;49.140;9.234;2023-04-25T10:44:27;21.07;;;8.53;;
20445;SDS011;10382;49.140;9.234;2023-04-25T10:46:54;25.33;;;9.70;;
20445;SDS011;10382;49.140;9.234;2023-04-25T10:49:29;18.73;;;8.53;;
20445;SDS011;10382;49.140;9.234;2023-04-25T10:52:13;20.50;;;8.97;;
20445;SDS011;10382;49.140;9.234;2023-04-25T10:54:48;30.13;;;10.10;;
20445;SDS011;10382;49.140;9.234;2023-04-25T10:57:27;32.93;;;10.53;;
20445;SDS011;10382;49.140;9.234;2023-04-25T10:59:59;31.03;;;9.87;;
20445;SDS011;10382;49.140;9.234;2023-04-25T11:02:38;22.17;;;8.60;;
20445;SDS011;10382;49.140;9.234;2023-04-25T11:05:08;26.13;;;9.20;;
20445;SDS011;10382;49.140;9.234;2023-04-25T11:07:38;29.73;;;10.30;;
20445;SDS011;10382;49.140;9.234;2023-04-25T11:10:09;31.63;;;10.03;;
20445;SDS011;10382;49.140;9.234;2023-04-25T11:12:36;29.10;;;10.33;;
20445;SDS011;10382;49.140;9.234;2023-04-25T11:15:04;37.63;;;10.07;;
20445;SDS011;10382;49.140;9.234;2023-04-25T11:17:33;28.47;;;10.50;;
20445;SDS011;10382;49.140;9.234;2023-04-25T11:20:00;31.73;;;10.03;;
20445;SDS011;10382;49.140;9.234;2023-04-25T11:22:29;29.80;;;11.33;;
20445;SDS011;10382;49.140;9.234;2023-04-25T11:24:55;32.27;;;10.93;;
20445;SDS011;10382;49.140;9.234;2023-04-25T11:27:22;24.87;;;9.73;;
20445;SDS011;10382;49.140;9.234;2023-04-25T11:29:50;23.57;;;8.33;;
20445;SDS011;10382;49.140;9.234;2023-04-25T11:32:18;25.37;;;8.93;;
20445;SDS011;10382;49.140;9.234;2023-04-25T11:34:46;28.80;;;10.03;;
20445;SDS011;10382;49.140;9.234;2023-04-25T11:37:13;43.17;;;11.33;;
20445;SDS011;10382;49.140;9.234;2023-04-25T11:39:43;25.60;;;8.93;;
20445;SDS011;10382;49.140;9.234;2023-04-25T11:42:12;37.30;;;11.37;;
20445;SDS011;10382;49.140;9.234;2023-04-25T11:44:39;27.57;;;9.37;;
20445;SDS011;10382;49.140;9.234;2023-04-25T11:47:06;24.20;;;8.80;;
20445;SDS011;10382;49.140;9.234;2023-04-25T11:49:34;22.17;;;8.30;;
20445;SDS011;10382;49.140;9.234;2023-04-25T11:52:02;30.83;;;9.97;;
20445;SDS011;10382;49.140;9.234;2023-04-25T11:54:29;27.57;;;9.70;;
20445;SDS011;10382;49.140;9.234;2023-04-25T11:56:56;42.23;;;13.27;;
20445;SDS011;10382;49.140;9.234;2023-04-25T11:59:23;25.87;;;9.83;;
20445;SDS011;10382;49.140;9.234;2023-04-25T12:01:51;35.37;;;11.73;;
20445;SDS011;10382;49.140;9.234;2023-04-25T12:04:19;36.87;;;11.00;;
20445;SDS011;10382;49.140;9.234;2023-04-25T12:06:49;35.93;;;12.30;;
20445;SDS011;10382;49.140;9.234;2023-04-25T12:09:18;28.80;;;10.40;;
20445;SDS011;10382;49.140;9.234;2023-04-25T12:11:47;36.33;;;11.93;;
20445;SDS011;10382;49.140;9.234;2023-04-25T12:14:20;29.40;;;10.00;;
20445;SDS011;10382;49.140;9.234;2023-04-25T12:16:49;26.80;;;9.90;;
20445;SDS011;10382;49.140;9.234;2023-04-25T12:19:16;35.00;;;11.53;;
20445;SDS011;10382;49.140;9.234;2023-04-25T12:21:44;30.97;;;11.23;;
20445;SDS011;10382;49.140;9.234;2023-04-25T12:24:13;33.37;;;12.07;;
20445;SDS011;10382;49.140;9.234;2023-04-25T12:26:50;39.33;;;13.70;;
20445;SDS011;10382;49.140;9.234;2023-04-25T12:29:22;32.37;;;11.83;;
20445;SDS011;10382;49.140;9.234;2023-04-25T12:31:50;35.43;;;11.53;;
20445;SDS011;10382;49.140;9.234;2023-04-25T12:34:17;32.93;;;10.17;;
20445;SDS011;10382;49.140;9.234;2023-04-25T12:36:44;28.23;;;9.80;;
20445;SDS011;10382;49.140;9.234;2023-04-25T12:39:15;23.03;;;9.30;;
20445;SDS011;10382;49.140;9.234;2023-04-25T12:41:43;53.57;;;14.37;;
20445;SDS011;10382;49.140;9.234;2023-04-25T12:44:10;28.97;;;9.17;;
20445;SDS011;10382;49.140;9.234;2023-04-25T12:46:38;23.13;;;7.20;;
20445;SDS011;10382;49.140;9.234;2023-04-25T12:49:06;29.27;;;8.90;;
20445;SDS011;10382;49.140;9.234;2023-04-25T12:51:33;28.47;;;8.50;;
20445;SDS011;10382;49.140;9.234;2023-04-25T12:54:00;22.40;;;7.73;;
20445;SDS011;10382;49.140;9.234;2023-04-25T12:56:30;37.90;;;9.90;;
20445;SDS011;10382;49.140;9.234;2023-04-25T12:58:57;26.60;;;7.50;;
20445;SDS011;10382;49.140;9.234;2023-04-25T13:01:24;24.80;;;8.43;;
20445;SDS011;10382;49.140;9.234;2023-04-25T13:03:52;22.03;;;7.37;;
20445;SDS011;10382;49.140;9.234;2023-04-25T13:06:19;25.53;;;8.50;;
20445;SDS011;10382;49.140;9.234;2023-04-25T13:08:48;22.07;;;7.50;;
20445;SDS011;10382;49.140;9.234;2023-04-25T13:11:15;27.70;;;7.90;;
20445;SDS011;10382;49.140;9.234;2023-04-25T13:13:43;21.90;;;7.27;;
20445;SDS011;10382;49.140;9.234;2023-04-25T13:16:10;19.97;;;6.50;;
20445;SDS011;10382;49.140;9.234;2023-04-25T13:18:39;25.33;;;7.97;;
20445;SDS011;10382;49.140;9.234;2023-04-25T13:21:06;21.33;;;7.03;;
20445;SDS011;10382;49.140;9.234;2023-04-25T13:23:33;29.97;;;9.20;;
20445;SDS011;10382;49.140;9.234;2023-04-25T13:26:00;25.50;;;8.10;;
20445;SDS011;10382;49.140;9.234;2023-04-25T13:28:27;19.03;;;6.70;;
20445;SDS011;10382;49.140;9.234;2023-04-25T13:30:55;20.20;;;7.70;;
20445;SDS011;10382;49.140;9.234;2023-04-25T13:33:23;23.83;;;8.60;;
20445;SDS011;10382;49.140;9.234;2023-04-25T13:35:50;23.03;;;7.43;;
20445;SDS011;10382;49.140;9.234;2023-04-25T13:38:20;35.87;;;9.90;;
20445;SDS011;10382;49.140;9.234;2023-04-25T13:40:48;27.43;;;8.27;;
20445;SDS011;10382;49.140;9.234;2023-04-25T13:43:17;27.03;;;8.00;;
20445;SDS011;10382;49.140;9.234;2023-04-25T13:45:44;37.77;;;10.60;;
20445;SDS011;10382;49.140;9.234;2023-04-25T13:48:12;23.60;;;6.87;;
20445;SDS011;10382;49.140;9.234;2023-04-25T13:50:39;25.87;;;8.63;;
20445;SDS011;10382;49.140;9.234;2023-04-25T13:53:06;20.63;;;6.47;;
20445;SDS011;10382;49.140;9.234;2023-04-25T13:55:33;20.10;;;5.87;;
20445;SDS011;10382;49.140;9.234;2023-04-25T13:58:01;22.00;;;6.90;;
20445;SDS011;10382;49.140;9.234;2023-04-25T14:00:32;18.17;;;5.20;;
20445;SDS011;10382;49.140;9.234;2023-04-25T14:03:02;23.33;;;6.30;;
20445;SDS011;10382;49.140;9.234;2023-04-25T14:05:33;39.37;;;10.17;;
20445;SDS011;10382;49.140;9.234;2023-04-25T14:08:03;15.60;;;5.53;;
20445;SDS011;10382;49.140;9.234;2023-04-25T14:10:32;25.40;;;7.47;;
20445;SDS011;10382;49.140;9.234;2023-04-25T14:12:59;24.73;;;7.10;;
20445;SDS011;10382;49.140;9.234;2023-04-25T14:15:28;25.93;;;7.10;;
20445;SDS011;10382;49.140;9.234;2023-04-25T14:17:55;22.27;;;7.20;;
20445;SDS011;10382;49.140;9.234;2023-04-25T14:20:22;16.33;;;5.77;;
20445;SDS011;10382;49.140;9.234;2023-04-25T14:22:50;26.83;;;7.70;;
20445;SDS011;10382;49.140;9.234;2023-04-25T14:25:19;30.10;;;7.83;;
20445;SDS011;10382;49.140;9.234;2023-04-25T14:27:47;20.73;;;5.93;;
20445;SDS011;10382;49.140;9.234;2023-04-25T14:30:15;18.80;;;6.10;;
20445;SDS011;10382;49.140;9.234;2023-04-25T14:32:42;21.50;;;6.80;;
20445;SDS011;10382;49.140;9.234;2023-04-25T14:35:09;16.97;;;5.40;;
20445;SDS011;10382;49.140;9.234;2023-04-25T14:37:36;27.53;;;7.90;;